Springfield, IL (62707)

8:46 AM CST on January 21, 2018 (GMT -0600)
Manchester Woods | | Change Station

Elev 568 ft 39.84 °N, 89.63 °W | Updated 16 seconds ago

Light Rain
Light Rain Mist
47.1 °F
Feels Like 47 °F
N
1.6
Wind Variable Wind from SSW
Gusts 6.5 mph

Today
High -- | Low -- °F
--% Chance of Precip.
Yesterday
High -- | Low -- °F
Precip. -- in
Pressure 29.96 in
Visibility 3.0 miles
Clouds Mostly Cloudy 2800 ft
Overcast 3400 ft
Windchill 47 °F
Dew Point 46 °F
Humidity 95%
Rainfall 0.00 in
Snow Depth Not available.
7:15 AM 5:05 PM
Waxing Crescent, 18% visible
METAR KSPI 211352Z 18009KT 3SM -RA BR BKN028 OVC034 08/08 A2995 RMK AO2 RAB46 SLP144 P0000 T00830078
Pressure 29.96 in
Visibility 3.0 miles
Clouds Mostly Cloudy 2800 ft
Overcast 3400 ft
Windchill 47 °F
Dew Point 46 °F
Humidity 95%
Rainfall 0.00 in
Snow Depth Not available.
7:15 AM 5:05 PM
Waxing Crescent, 18% visible
METAR KSPI 211352Z 18009KT 3SM -RA BR BKN028 OVC034 08/08 A2995 RMK AO2 RAB46 SLP144 P0000 T00830078

Get Severe Weather Alerts

Thanks for signing up!

Be on the lookout for a verification email in your inbox.

You'll start receiving the daily forecast at 6 AM.

×

10-Day Weather Forecast

Almanac

Astronomy

Jan. 21, 2018 Rise Set
Actual Time
Civil Twilight
Nautical Twilight
Astronomical Twilight
Moon
Length of Visible Light
Length of Day
Tomorrow will be .
, % of the Moon is Illuminated

Today's Extremes

State Highs State Lows

Community

WunderPhotos

Category 6

Welcome to Category 6. This is the collective home for Weather Underground's featured writeups by Dr. Jeff Masters (right), Bob Henson (left), Chris Burt, and other regular contributors.

Nearby

Air Quality

  Air Quality AQ Index Pollutant
Not available.

Snow Depth

Station Depth Elevation

Earthquake Activity

City Distance Mag. Time & Date
Minimum magnitude displayed is 2.5.

Coastal Water Temperatures

Place Temperature

Stations

Nearby Weather Stations

Station Location Temp. Windchill Dew Point Humidity Wind Precip. Elev Updated Type
                   

Watches & Warnings

There are currently no watches in effect.